Confluence, Kentucky
Current Conditions -  °F | °C
As of 1:53 PM on Thursday 18 Dec 2014 (Local Time) from KJKL Reporting Station
Overcast Overcast  
Wind Chill: 31°   Ceiling: 7500
Heat Index: 35°   Visibility: 10mi
Dew Point: 24°   Wind: 5mph
Humidity: 64%   Direction: 290°WNW
Pressure: 30.16"   Gusts: NA
Location:  37.26°N, 83.38°W
Report Text: KJKL 181853Z AUTO 29004KT 10SM OVC075 02/M04 A3016 RMK AO2 SLP224 T00171044
Loading
Personal Weather Stations






























Interactive Weather Map New forecast layout! Learn more

10-Day Weather Forecast

Advertisements
Track Severe Weather on mobile